x

Newport, Or (nwpo3) Weather Station

8:00am - Tue 6th Dec 2016 All times are PST. -8 hours from GMT.

  • Wind
    6mph, 8mph gusts
  • Air Temp 35°f
  • Sea Pressure 1017.6mb
  • Newport, Or
  • Newport, Or

More Historic Weather Station data

Upgrade to MSW Pro to gain access to the past 30 days of data for over 8000 Wavebouys and Weather Stations around the globe.

Join Pro

Comparision Forecast

View Surf forecast
   
Tue 12/06 8:00am 6 8 mph 1017.6mb 35f
7:00am 7 8 mph 1016.6mb 35f
6:00am 5 6 mph 1016mb 36f
5:00am 7 8 mph 1015.6mb 36f
4:00am 9 10 mph 1015.1mb 38f
3:00am 8 9 mph 1015.2mb 37f
2:00am 7 9 mph 1015.5mb 38f
1:00am 8 10 mph 1015.8mb 38f
12:00am 5
mph
1016.6mb 38f
Mon 12/05 11:00pm 5 6 mph 1016.3mb 39f
10:00pm 7 9 mph 1016.9mb 38f
9:00pm 7 8 mph 1016.8mb 38f
8:00pm 10 11 mph 1016.9mb 42f
7:00pm 9 10 mph 1017mb 43f
6:00pm 23 28 mph 1017.5mb 44f
5:00pm 14 16 mph 1017.5mb 45f
4:00pm 15 18 mph 1017.5mb 44f
3:00pm 10 14 mph 1017.8mb 47f
2:00pm 15 17 mph 1018.3mb 46f
1:00pm 14 17 mph 1019mb 46f
12:00pm 8 11 mph 1019.3mb 41f
11:00am 11 15 mph 1020.3mb 41f
10:00am 14 16 mph 1021mb 39f
9:00am 11 13 mph 1021.5mb 40f
8:00am 11 15 mph 1021.2mb 38f
7:00am 11 14 mph 1021.8mb 38f
6:00am 9 14 mph 1022.5mb 38f
5:00am 5 6 mph 1023mb 36f
4:00am 5 7 mph 1023.7mb 36f
3:00am 7 8 mph 1024.3mb 36f
2:00am 8 9 mph 1024.3mb 36f
1:00am 8 9 mph 1024.7mb 37f
12:00am 6 8 mph 1025.2mb 37f
Sun 12/04 11:00pm 2 3 mph 1025.5mb 37f
10:00pm 8 10 mph 1025.1mb 37f
9:00pm 7 10 mph 1024.8mb 41f
8:00pm 5 6 mph 1023.8mb 41f
7:00pm 8 10 mph 1023.4mb 44f
6:00pm 18 22 mph 1022.7mb 49f
5:00pm 14 16 mph 1022.4mb 49f
4:00pm 8 11 mph 1022.4mb 47f
3:00pm 8 10 mph 1021.9mb 47f
2:00pm 24 30 mph 1021.3mb 49f
1:00pm 21 23 mph 1021.3mb 49f
12:00pm 20 23 mph 1021.3mb 49f
11:00am 21 23 mph 1021.3mb 49f
10:00am 23 26 mph 1020.9mb 49f
9:00am 17 20 mph 1020.3mb 47f
7:00am 24 29 mph 1019.3mb 48f
6:00am 18 22 mph 1018.8mb 49f
5:00am 21 24 mph 1019mb 50f
4:00am 16 18 mph 1019.3mb 51f
3:00am 23 26 mph 1020.4mb 52f
2:00am 22 25 mph 1021.1mb 51f
1:00am 24 28 mph 1022.1mb 50f
12:00am 22 28 mph 1022.9mb 51f
Sat 12/03 11:00pm 21 23 mph 1023.3mb 52f
10:00pm 22 24 mph 1024.1mb 53f
9:00pm 15 18 mph 1025.3mb 53f
8:00pm 17 21 mph 1025.4mb 53f
7:00pm 13 15 mph 1026.1mb 53f
6:00pm 8 9 mph 1026.7mb 53f
5:00pm 8 11 mph 1027.3mb 52f
4:00pm 8 9 mph 1027.5mb 52f
3:00pm 9 11 mph 1027.9mb 52f
2:00pm 7 9 mph 1028.7mb 53f
1:00pm 11 15 mph 1029.1mb 53f
12:00pm 11 14 mph 1029mb 52f
11:00am 5 7 mph 1029.6mb 51f
10:00am 2
mph
1029.6mb 47f
9:00am 5
mph
1030mb 45f
8:00am 1 2 mph 1029.5mb 46f
7:00am 2 5 mph 1029mb 46f
6:00am 9 10 mph 1028.3mb 52f
5:00am 9 11 mph 1028.2mb 53f
4:00am 6 7 mph 1028.3mb 52f
3:00am 9 10 mph 1028mb 52f
2:00am 11 13 mph 1027.6mb 53f
1:00am 11
mph
1027.4mb 53f
12:00am 11 13 mph 1026.7mb 53f
Fri 12/02 11:00pm 15 17 mph 1026.3mb 53f
10:00pm 15 17 mph 1025.5mb 53f
9:00pm 13 16 mph 1024.6mb 53f
8:00pm 8 10 mph 1024.7mb 52f
7:00pm 25 31 mph 1024mb 51f